sensor_id;sensor_type;location;lat;lon;timestamp;pressure;altitude;pressure_sealevel;temperature;humidity
37792;BME280;29527;55.766;37.570;2023-02-22T00:00:36;98570.25;;;-13.66;58.39
37792;BME280;29527;55.766;37.570;2023-02-22T00:03:10;98573.66;;;-13.62;58.40
37792;BME280;29527;55.766;37.570;2023-02-22T00:05:37;98582.25;;;-13.60;58.09
37792;BME280;29527;55.766;37.570;2023-02-22T00:08:04;98544.56;;;-13.83;58.20
37792;BME280;29527;55.766;37.570;2023-02-22T00:10:34;98583.09;;;-13.57;58.34
37792;BME280;29527;55.766;37.570;2023-02-22T00:13:03;98593.38;;;-13.50;57.98
37792;BME280;29527;55.766;37.570;2023-02-22T00:15:30;98558.25;;;-13.72;58.22
37792;BME280;29527;55.766;37.570;2023-02-22T00:17:55;98598.50;;;-13.52;57.86
37792;BME280;29527;55.766;37.570;2023-02-22T00:20:21;98601.94;;;-13.47;57.78
37792;BME280;29527;55.766;37.570;2023-02-22T00:22:48;98603.66;;;-13.46;57.75
37792;BME280;29527;55.766;37.570;2023-02-22T00:25:17;98571.13;;;-13.68;58.18
37792;BME280;29527;55.766;37.570;2023-02-22T00:27:44;98608.81;;;-13.46;57.86
37792;BME280;29527;55.766;37.570;2023-02-22T00:30:20;98618.19;;;-13.42;58.06
37792;BME280;29527;55.766;37.570;2023-02-22T00:32:47;98625.97;;;-13.46;58.01
37792;BME280;29527;55.766;37.570;2023-02-22T00:35:14;98622.53;;;-13.45;58.17
37792;BME280;29527;55.766;37.570;2023-02-22T00:37:41;98618.25;;;-13.54;57.54
37792;BME280;29527;55.766;37.570;2023-02-22T00:40:08;98635.41;;;-13.48;58.24
37792;BME280;29527;55.766;37.570;2023-02-22T00:42:34;98628.56;;;-13.57;57.74
37792;BME280;29527;55.766;37.570;2023-02-22T00:45:00;98640.56;;;-13.48;58.22
37792;BME280;29527;55.766;37.570;2023-02-22T00:47:25;98638.84;;;-13.48;57.62
37792;BME280;29527;55.766;37.570;2023-02-22T00:49:51;98644.84;;;-13.55;57.87
37792;BME280;29527;55.766;37.570;2023-02-22T00:52:17;98650.88;;;-13.54;58.23
37792;BME280;29527;55.766;37.570;2023-02-22T00:54:42;98620.03;;;-13.72;57.98
37792;BME280;29527;55.766;37.570;2023-02-22T00:57:08;98656.03;;;-13.58;57.79
37792;BME280;29527;55.766;37.570;2023-02-22T00:59:33;98610.59;;;-13.79;57.59
37792;BME280;29527;55.766;37.570;2023-02-22T01:01:59;98656.03;;;-13.54;57.71
37792;BME280;29527;55.766;37.570;2023-02-22T01:04:24;98647.44;;;-13.58;57.73
37792;BME280;29527;55.766;37.570;2023-02-22T01:06:50;98638.88;;;-13.60;58.06
37792;BME280;29527;55.766;37.570;2023-02-22T01:09:15;98649.19;;;-13.66;57.88
37792;BME280;29527;55.766;37.570;2023-02-22T01:11:40;98650.03;;;-13.64;57.92
37792;BME280;29527;55.766;37.570;2023-02-22T01:14:06;98646.63;;;-13.74;57.76
37792;BME280;29527;55.766;37.570;2023-02-22T01:16:34;98660.34;;;-13.77;58.11
37792;BME280;29527;55.766;37.570;2023-02-22T01:19:00;98661.22;;;-13.81;58.24
37792;BME280;29527;55.766;37.570;2023-02-22T01:21:25;98661.22;;;-13.81;58.57
37792;BME280;29527;55.766;37.570;2023-02-22T01:23:51;98661.22;;;-13.81;58.11
37792;BME280;29527;55.766;37.570;2023-02-22T01:26:16;98657.78;;;-13.83;58.02
37792;BME280;29527;55.766;37.570;2023-02-22T01:28:42;98669.78;;;-13.88;58.23
37792;BME280;29527;55.766;37.570;2023-02-22T01:31:07;98663.78;;;-13.92;58.24
37792;BME280;29527;55.766;37.570;2023-02-22T01:33:33;98675.81;;;-14.03;58.95
37792;BME280;29527;55.766;37.570;2023-02-22T01:35:58;98674.09;;;-14.18;58.85
37792;BME280;29527;55.766;37.570;2023-02-22T01:38:24;98679.22;;;-14.17;59.00
37792;BME280;29527;55.766;37.570;2023-02-22T01:40:51;98686.06;;;-14.13;59.11
37792;BME280;29527;55.766;37.570;2023-02-22T01:43:28;98685.25;;;-14.08;59.20
37792;BME280;29527;55.766;37.570;2023-02-22T01:46:02;98686.09;;;-14.11;59.12
37792;BME280;29527;55.766;37.570;2023-02-22T01:48:35;98698.06;;;-14.11;58.84
37792;BME280;29527;55.766;37.570;2023-02-22T01:51:25;98698.94;;;-14.11;59.05
37792;BME280;29527;55.766;37.570;2023-02-22T01:53:56;98704.94;;;-14.14;59.12
37792;BME280;29527;55.766;37.570;2023-02-22T01:56:24;98704.94;;;-14.15;58.86
37792;BME280;29527;55.766;37.570;2023-02-22T01:58:55;98708.38;;;-14.15;58.56
37792;BME280;29527;55.766;37.570;2023-02-22T02:01:22;98711.78;;;-14.19;59.31
37792;BME280;29527;55.766;37.570;2023-02-22T02:03:49;98710.09;;;-14.20;59.37
37792;BME280;29527;55.766;37.570;2023-02-22T02:06:17;98710.09;;;-14.26;59.73
37792;BME280;29527;55.766;37.570;2023-02-22T02:08:53;98714.34;;;-14.26;59.61
37792;BME280;29527;55.766;37.570;2023-02-22T02:11:22;98722.94;;;-14.28;59.29
37792;BME280;29527;55.766;37.570;2023-02-22T02:13:51;98727.22;;;-14.26;59.59
37792;BME280;29527;55.766;37.570;2023-02-22T02:16:20;98726.38;;;-14.22;59.62
37792;BME280;29527;55.766;37.570;2023-02-22T02:18:47;98686.06;;;-14.40;59.45
37792;BME280;29527;55.766;37.570;2023-02-22T02:21:30;98724.66;;;-14.13;59.37
37792;BME280;29527;55.766;37.570;2023-02-22T02:24:47;98734.13;;;-14.08;59.64
37792;BME280;29527;55.766;37.570;2023-02-22T02:27:21;98717.78;;;-14.20;58.68
37792;BME280;29527;55.766;37.570;2023-02-22T02:42:50;98770.13;;;-13.87;58.82
37792;BME280;29527;55.766;37.570;2023-02-22T02:45:27;98774.44;;;-13.84;58.37
37792;BME280;29527;55.766;37.570;2023-02-22T02:47:58;98777.03;;;-13.82;58.22
37792;BME280;29527;55.766;37.570;2023-02-22T02:50:30;98769.28;;;-13.81;58.21
37792;BME280;29527;55.766;37.570;2023-02-22T02:53:00;98771.00;;;-13.83;57.85
37792;BME280;29527;55.766;37.570;2023-02-22T02:55:28;98767.56;;;-13.91;58.33
37792;BME280;29527;55.766;37.570;2023-02-22T02:57:54;98762.41;;;-14.04;58.40
37792;BME280;29527;55.766;37.570;2023-02-22T03:00:23;98738.38;;;-14.26;58.32
37792;BME280;29527;55.766;37.570;2023-02-22T03:08:34;98791.53;;;-14.13;58.43
37792;BME280;29527;55.766;37.570;2023-02-22T03:11:20;98784.69;;;-14.15;58.64
37792;BME280;29527;55.766;37.570;2023-02-22T03:14:20;98793.25;;;-14.16;58.80
37792;BME280;29527;55.766;37.570;2023-02-22T03:17:05;98778.66;;;-14.31;58.27
37792;BME280;29527;55.766;37.570;2023-02-22T03:19:50;98794.97;;;-14.12;58.58
37792;BME280;29527;55.766;37.570;2023-02-22T03:22:21;98793.25;;;-14.18;58.27
37792;BME280;29527;55.766;37.570;2023-02-22T03:30:02;98805.25;;;-14.20;58.55
37792;BME280;29527;55.766;37.570;2023-02-22T03:32:38;98818.09;;;-14.17;58.07
37792;BME280;29527;55.766;37.570;2023-02-22T03:35:12;98809.53;;;-14.19;58.53
37792;BME280;29527;55.766;37.570;2023-02-22T03:37:45;98812.94;;;-14.24;58.36
37792;BME280;29527;55.766;37.570;2023-02-22T03:40:17;98812.94;;;-14.23;58.35
37792;BME280;29527;55.766;37.570;2023-02-22T03:42:54;98818.06;;;-14.31;58.65
37792;BME280;29527;55.766;37.570;2023-02-22T03:45:24;98826.69;;;-14.18;58.45
37792;BME280;29527;55.766;37.570;2023-02-22T03:47:59;98813.78;;;-14.29;58.62
37792;BME280;29527;55.766;37.570;2023-02-22T03:50:30;98836.94;;;-14.24;58.06
37792;BME280;29527;55.766;37.570;2023-02-22T03:53:00;98847.22;;;-14.29;58.51
37792;BME280;29527;55.766;37.570;2023-02-22T03:55:25;98837.78;;;-14.31;58.38
37792;BME280;29527;55.766;37.570;2023-02-22T03:58:01;98847.22;;;-14.33;58.28
37792;BME280;29527;55.766;37.570;2023-02-22T04:00:31;98859.19;;;-14.34;58.53
37792;BME280;29527;55.766;37.570;2023-02-22T04:02:57;98853.22;;;-14.31;58.67
37792;BME280;29527;55.766;37.570;2023-02-22T04:05:23;98866.06;;;-14.34;58.33
37792;BME280;29527;55.766;37.570;2023-02-22T04:07:54;98849.69;;;-14.49;58.54
37792;BME280;29527;55.766;37.570;2023-02-22T04:10:20;98874.59;;;-14.38;58.38
37792;BME280;29527;55.766;37.570;2023-02-22T04:12:47;98869.47;;;-14.40;58.80
37792;BME280;29527;55.766;37.570;2023-02-22T04:15:16;98866.88;;;-14.42;58.50
37792;BME280;29527;55.766;37.570;2023-02-22T04:17:41;98872.88;;;-14.39;58.45
37792;BME280;29527;55.766;37.570;2023-02-22T04:20:07;98873.75;;;-14.39;58.64
37792;BME280;29527;55.766;37.570;2023-02-22T04:22:33;98874.59;;;-14.40;58.83
37792;BME280;29527;55.766;37.570;2023-02-22T04:24:58;98883.19;;;-14.38;58.40
37792;BME280;29527;55.766;37.570;2023-02-22T04:27:24;98873.72;;;-14.45;58.32
37792;BME280;29527;55.766;37.570;2023-02-22T04:29:49;98892.56;;;-14.42;58.72
37792;BME280;29527;55.766;37.570;2023-02-22T04:32:15;98891.72;;;-14.44;58.21
37792;BME280;29527;55.766;37.570;2023-02-22T04:34:41;98894.25;;;-14.48;58.85
37792;BME280;29527;55.766;37.570;2023-02-22T04:37:06;98899.38;;;-14.48;58.63
37792;BME280;29527;55.766;37.570;2023-02-22T04:39:32;98909.66;;;-14.48;58.33
37792;BME280;29527;55.766;37.570;2023-02-22T04:41:58;98877.06;;;-14.62;58.63
37792;BME280;29527;55.766;37.570;2023-02-22T04:44:23;98909.72;;;-14.45;58.06
37792;BME280;29527;55.766;37.570;2023-02-22T04:46:49;98911.38;;;-14.50;58.29
37792;BME280;29527;55.766;37.570;2023-02-22T04:49:14;98913.91;;;-14.57;58.34
37792;BME280;29527;55.766;37.570;2023-02-22T04:51:40;98901.91;;;-14.61;58.88
37792;BME280;29527;55.766;37.570;2023-02-22T04:54:06;98924.28;;;-14.44;58.36
37792;BME280;29527;55.766;37.570;2023-02-22T04:56:32;98919.16;;;-14.36;58.49
37792;BME280;29527;55.766;37.570;2023-02-22T04:58:57;98916.66;;;-14.25;57.99
37792;BME280;29527;55.766;37.570;2023-02-22T05:01:23;98922.72;;;-14.14;57.99
37792;BME280;29527;55.766;37.570;2023-02-22T05:03:48;98927.03;;;-14.07;57.67
37792;BME280;29527;55.766;37.570;2023-02-22T05:06:16;98925.38;;;-13.92;57.63
37792;BME280;29527;55.766;37.570;2023-02-22T05:08:41;98921.97;;;-13.82;57.22
37792;BME280;29527;55.766;37.570;2023-02-22T05:11:07;98918.63;;;-13.59;57.26
37792;BME280;29527;55.766;37.570;2023-02-22T05:13:32;98917.75;;;-13.30;56.40
37792;BME280;29527;55.766;37.570;2023-02-22T05:15:58;98920.38;;;-13.10;55.78
37792;BME280;29527;55.766;37.570;2023-02-22T05:18:23;98908.34;;;-13.03;55.41
37792;BME280;29527;55.766;37.570;2023-02-22T05:20:49;98915.19;;;-12.91;55.20
37792;BME280;29527;55.766;37.570;2023-02-22T05:23:14;98931.53;;;-12.77;54.90
37792;BME280;29527;55.766;37.570;2023-02-22T05:25:40;98936.66;;;-12.63;54.77
37792;BME280;29527;55.766;37.570;2023-02-22T05:28:11;98937.50;;;-12.41;54.06
37792;BME280;29527;55.766;37.570;2023-02-22T05:30:37;98944.34;;;-12.24;53.96
37792;BME280;29527;55.766;37.570;2023-02-22T05:33:06;98942.50;;;-11.95;53.72
37792;BME280;29527;55.766;37.570;2023-02-22T05:35:32;98949.09;;;-11.29;52.85
37792;BME280;29527;55.766;37.570;2023-02-22T05:37:57;98954.28;;;-10.29;51.50
37792;BME280;29527;55.766;37.570;2023-02-22T05:40:26;98943.69;;;-9.37;48.90
37792;BME280;29527;55.766;37.570;2023-02-22T05:42:53;98947.00;;;-8.68;46.65
37792;BME280;29527;55.766;37.570;2023-02-22T05:45:21;98946.50;;;-7.93;45.46
37792;BME280;29527;55.766;37.570;2023-02-22T05:47:47;98936.53;;;-7.29;43.52
37792;BME280;29527;55.766;37.570;2023-02-22T05:50:13;98912.72;;;-6.74;43.06
37792;BME280;29527;55.766;37.570;2023-02-22T05:52:39;98943.91;;;-5.73;41.67
37792;BME280;29527;55.766;37.570;2023-02-22T05:55:06;98949.22;;;-4.88;40.18
37792;BME280;29527;55.766;37.570;2023-02-22T05:57:32;98945.72;;;-4.08;39.29
37792;BME280;29527;55.766;37.570;2023-02-22T05:59:57;98949.09;;;-3.55;37.81
37792;BME280;29527;55.766;37.570;2023-02-22T06:02:23;98938.41;;;-3.72;37.31
37792;BME280;29527;55.766;37.570;2023-02-22T06:04:48;98955.50;;;-3.64;36.31
37792;BME280;29527;55.766;37.570;2023-02-22T06:07:14;98955.56;;;-3.18;36.38
37792;BME280;29527;55.766;37.570;2023-02-22T06:09:40;98926.63;;;-2.92;35.04
37792;BME280;29527;55.766;37.570;2023-02-22T06:12:06;98968.97;;;-2.36;34.18
37792;BME280;29527;55.766;37.570;2023-02-22T06:14:32;98953.50;;;-1.80;34.02
37792;BME280;29527;55.766;37.570;2023-02-22T06:16:58;98962.59;;;-1.28;32.46
37792;BME280;29527;55.766;37.570;2023-02-22T06:19:25;98970.69;;;-1.14;32.88
37792;BME280;29527;55.766;37.570;2023-02-22T06:21:52;98966.38;;;-1.15;32.60
37792;BME280;29527;55.766;37.570;2023-02-22T06:24:18;98962.88;;;-1.16;33.30
37792;BME280;29527;55.766;37.570;2023-02-22T06:26:43;98967.75;;;-0.69;32.92
37792;BME280;29527;55.766;37.570;2023-02-22T06:29:09;98970.16;;;0.41;30.60
37792;BME280;29527;55.766;37.570;2023-02-22T06:31:34;98969.31;;;1.06;29.73
37792;BME280;29527;55.766;37.570;2023-02-22T06:34:01;98977.66;;;1.31;29.66
37792;BME280;29527;55.766;37.570;2023-02-22T06:36:28;98943.19;;;1.34;28.53
37792;BME280;29527;55.766;37.570;2023-02-22T06:38:55;98977.22;;;1.06;28.05
37792;BME280;29527;55.766;37.570;2023-02-22T06:41:21;98973.09;;;0.68;28.81
37792;BME280;29527;55.766;37.570;2023-02-22T06:43:47;98973.28;;;0.81;28.96
37792;BME280;29527;55.766;37.570;2023-02-22T06:46:12;98983.59;;;1.18;28.24
37792;BME280;29527;55.766;37.570;2023-02-22T06:48:38;98979.41;;;1.62;27.34
37792;BME280;29527;55.766;37.570;2023-02-22T06:51:08;98981.94;;;2.39;26.11
37792;BME280;29527;55.766;37.570;2023-02-22T06:53:34;98946.50;;;3.14;25.67
37792;BME280;29527;55.766;37.570;2023-02-22T06:56:00;98954.06;;;3.48;24.66
37792;BME280;29527;55.766;37.570;2023-02-22T06:58:26;98985.91;;;4.14;23.75
37792;BME280;29527;55.766;37.570;2023-02-22T07:00:52;98987.41;;;4.44;23.87
37792;BME280;29527;55.766;37.570;2023-02-22T07:03:18;98982.50;;;5.27;23.23
37792;BME280;29527;55.766;37.570;2023-02-22T07:05:43;98990.34;;;5.91;22.04
37792;BME280;29527;55.766;37.570;2023-02-22T07:08:09;98998.13;;;5.81;21.03
37792;BME280;29527;55.766;37.570;2023-02-22T07:10:36;98986.56;;;5.20;22.37
37792;BME280;29527;55.766;37.570;2023-02-22T07:13:03;98987.50;;;5.32;21.53
37792;BME280;29527;55.766;37.570;2023-02-22T07:15:30;98989.00;;;5.60;21.33
37792;BME280;29527;55.766;37.570;2023-02-22T07:17:56;99002.78;;;6.14;20.62
37792;BME280;29527;55.766;37.570;2023-02-22T07:20:22;98997.09;;;6.78;19.75
37792;BME280;29527;55.766;37.570;2023-02-22T07:22:49;98997.91;;;7.24;20.16
37792;BME280;29527;55.766;37.570;2023-02-22T07:25:14;98996.78;;;7.93;18.77
37792;BME280;29527;55.766;37.570;2023-02-22T07:27:41;99001.38;;;8.24;18.79
37792;BME280;29527;55.766;37.570;2023-02-22T07:30:27;99006.03;;;7.78;20.73
37792;BME280;29527;55.766;37.570;2023-02-22T07:32:58;98990.53;;;6.70;18.95
37792;BME280;29527;55.766;37.570;2023-02-22T07:35:34;99014.88;;;6.66;19.32
37792;BME280;29527;55.766;37.570;2023-02-22T07:38:04;99019.81;;;6.70;19.44
37792;BME280;29527;55.766;37.570;2023-02-22T07:40:30;99020.06;;;6.90;19.10
37792;BME280;29527;55.766;37.570;2023-02-22T07:43:01;99027.22;;;6.89;19.41
37792;BME280;29527;55.766;37.570;2023-02-22T07:45:30;99021.78;;;7.02;19.10
37792;BME280;29527;55.766;37.570;2023-02-22T07:47:56;99006.66;;;7.14;18.83
37792;BME280;29527;55.766;37.570;2023-02-22T07:50:23;99045.72;;;7.25;18.70
37792;BME280;29527;55.766;37.570;2023-02-22T07:52:52;99041.13;;;6.35;18.63
37792;BME280;29527;55.766;37.570;2023-02-22T07:55:20;99034.53;;;5.92;19.38
37792;BME280;29527;55.766;37.570;2023-02-22T07:57:47;99006.91;;;4.69;19.64
37792;BME280;29527;55.766;37.570;2023-02-22T08:00:19;99034.47;;;3.18;20.57
37792;BME280;29527;55.766;37.570;2023-02-22T08:02:45;99038.13;;;1.34;22.61
37792;BME280;29527;55.766;37.570;2023-02-22T08:05:13;99039.31;;;-0.08;24.36
37792;BME280;29527;55.766;37.570;2023-02-22T08:07:39;99055.19;;;-1.44;26.06
37792;BME280;29527;55.766;37.570;2023-02-22T08:10:06;99035.41;;;-2.82;27.39
37792;BME280;29527;55.766;37.570;2023-02-22T08:12:33;99061.53;;;-3.79;28.89
37792;BME280;29527;55.766;37.570;2023-02-22T08:14:59;99062.91;;;-4.48;30.59
37792;BME280;29527;55.766;37.570;2023-02-22T08:17:25;99060.44;;;-4.81;30.68
37792;BME280;29527;55.766;37.570;2023-02-22T08:19:50;99030.88;;;-5.43;31.05
37792;BME280;29527;55.766;37.570;2023-02-22T08:22:15;99071.66;;;-5.72;32.10
37792;BME280;29527;55.766;37.570;2023-02-22T08:24:41;99067.16;;;-6.35;33.04
37792;BME280;29527;55.766;37.570;2023-02-22T08:27:06;99071.63;;;-6.81;34.33
37792;BME280;29527;55.766;37.570;2023-02-22T08:29:32;99080.56;;;-6.91;34.37
37792;BME280;29527;55.766;37.570;2023-02-22T08:32:00;99083.53;;;-7.10;34.78
37792;BME280;29527;55.766;37.570;2023-02-22T08:34:26;99082.91;;;-7.23;35.24
37792;BME280;29527;55.766;37.570;2023-02-22T08:36:53;99085.03;;;-6.99;35.18
37792;BME280;29527;55.766;37.570;2023-02-22T08:39:19;99091.72;;;-6.86;34.68
37792;BME280;29527;55.766;37.570;2023-02-22T08:41:44;99085.63;;;-6.85;35.00
37792;BME280;29527;55.766;37.570;2023-02-22T08:44:10;99083.97;;;-6.89;34.79
37792;BME280;29527;55.766;37.570;2023-02-22T08:46:35;99089.19;;;-6.89;35.14
37792;BME280;29527;55.766;37.570;2023-02-22T08:49:01;99094.47;;;-6.92;34.62
37792;BME280;29527;55.766;37.570;2023-02-22T08:51:27;99093.41;;;-7.27;35.23
37792;BME280;29527;55.766;37.570;2023-02-22T08:53:53;99092.91;;;-7.46;36.60
37792;BME280;29527;55.766;37.570;2023-02-22T08:56:19;99096.38;;;-7.46;36.00
37792;BME280;29527;55.766;37.570;2023-02-22T08:58:45;99105.84;;;-7.43;36.51
37792;BME280;29527;55.766;37.570;2023-02-22T09:01:10;99106.94;;;-7.55;36.83
37792;BME280;29527;55.766;37.570;2023-02-22T09:03:36;99103.59;;;-7.62;36.55
37792;BME280;29527;55.766;37.570;2023-02-22T09:06:03;99107.88;;;-7.58;37.27
37792;BME280;29527;55.766;37.570;2023-02-22T09:08:28;99100.09;;;-7.61;36.72
37792;BME280;29527;55.766;37.570;2023-02-22T09:10:54;99096.91;;;-7.75;36.75
37792;BME280;29527;55.766;37.570;2023-02-22T09:13:19;99108.19;;;-7.76;37.44
37792;BME280;29527;55.766;37.570;2023-02-22T09:15:45;99108.06;;;-7.69;36.82
37792;BME280;29527;55.766;37.570;2023-02-22T09:18:12;99116.06;;;-7.81;37.56
37792;BME280;29527;55.766;37.570;2023-02-22T09:20:39;99117.94;;;-7.89;37.92
37792;BME280;29527;55.766;37.570;2023-02-22T09:23:05;99122.25;;;-7.88;37.88
37792;BME280;29527;55.766;37.570;2023-02-22T09:25:31;99112.69;;;-7.86;38.18
37792;BME280;29527;55.766;37.570;2023-02-22T09:27:59;99113.38;;;-7.76;37.86
37792;BME280;29527;55.766;37.570;2023-02-22T09:32:54;99121.72;;;-7.57;38.05
37792;BME280;29527;55.766;37.570;2023-02-22T09:35:20;99121.78;;;-7.62;37.59
37792;BME280;29527;55.766;37.570;2023-02-22T09:37:54;99132.03;;;-7.53;38.67
37792;BME280;29527;55.766;37.570;2023-02-22T09:40:20;99129.75;;;-7.24;37.89
37792;BME280;29527;55.766;37.570;2023-02-22T09:42:59;99138.97;;;-7.06;37.28
37792;BME280;29527;55.766;37.570;2023-02-22T09:45:33;99102.22;;;-7.35;37.15
37792;BME280;29527;55.766;37.570;2023-02-22T09:48:02;99140.06;;;-7.18;37.46
37792;BME280;29527;55.766;37.570;2023-02-22T09:50:36;99144.38;;;-7.17;38.17
37792;BME280;29527;55.766;37.570;2023-02-22T09:55:50;99146.28;;;-6.81;37.56
37792;BME280;29527;55.766;37.570;2023-02-22T09:58:34;99144.56;;;-6.82;37.42
37792;BME280;29527;55.766;37.570;2023-02-22T10:01:30;99149.94;;;-6.90;37.77
37792;BME280;29527;55.766;37.570;2023-02-22T10:04:19;99149.84;;;-6.85;37.60
37792;BME280;29527;55.766;37.570;2023-02-22T10:09:25;99144.06;;;-7.00;37.98
37792;BME280;29527;55.766;37.570;2023-02-22T10:11:57;99143.66;;;-7.25;37.97
37792;BME280;29527;55.766;37.570;2023-02-22T10:17:14;99144.59;;;-7.78;39.09
37792;BME280;29527;55.766;37.570;2023-02-22T10:25:04;99148.66;;;-7.63;39.54
37792;BME280;29527;55.766;37.570;2023-02-22T10:27:41;99158.22;;;-7.64;39.75
37792;BME280;29527;55.766;37.570;2023-02-22T10:30:20;99155.75;;;-7.73;39.82
37792;BME280;29527;55.766;37.570;2023-02-22T10:33:08;99153.38;;;-7.85;40.04
37792;BME280;29527;55.766;37.570;2023-02-22T10:35:36;99150.13;;;-8.00;39.55
37792;BME280;29527;55.766;37.570;2023-02-22T10:41:20;99153.78;;;-8.10;41.32
37792;BME280;29527;55.766;37.570;2023-02-22T10:43:48;99158.75;;;-7.96;40.87
37792;BME280;29527;55.766;37.570;2023-02-22T10:46:16;99157.84;;;-7.94;40.22
37792;BME280;29527;55.766;37.570;2023-02-22T10:48:46;99128.78;;;-8.17;40.48
37792;BME280;29527;55.766;37.570;2023-02-22T10:51:14;99175.06;;;-7.86;41.18
37792;BME280;29527;55.766;37.570;2023-02-22T10:53:40;99163.63;;;-7.76;40.25
37792;BME280;29527;55.766;37.570;2023-02-22T10:56:16;99178.19;;;-7.66;40.02
37792;BME280;29527;55.766;37.570;2023-02-22T10:58:48;99173.78;;;-7.62;39.82
37792;BME280;29527;55.766;37.570;2023-02-22T11:01:26;99184.19;;;-7.62;39.97
37792;BME280;29527;55.766;37.570;2023-02-22T11:06:34;99172.09;;;-7.65;39.59
37792;BME280;29527;55.766;37.570;2023-02-22T11:09:07;99174.66;;;-7.61;39.87
37792;BME280;29527;55.766;37.570;2023-02-22T11:11:34;99176.41;;;-7.64;39.88
37792;BME280;29527;55.766;37.570;2023-02-22T11:14:00;99144.97;;;-8.01;39.68
37792;BME280;29527;55.766;37.570;2023-02-22T11:16:32;99183.69;;;-7.84;40.72
37792;BME280;29527;55.766;37.570;2023-02-22T11:21:34;99191.25;;;-7.70;40.44
37792;BME280;29527;55.766;37.570;2023-02-22T11:24:06;99190.53;;;-7.80;40.49
37792;BME280;29527;55.766;37.570;2023-02-22T11:29:21;99196.00;;;-7.96;41.04
37792;BME280;29527;55.766;37.570;2023-02-22T11:31:47;99197.72;;;-7.96;41.15
37792;BME280;29527;55.766;37.570;2023-02-22T11:36:56;99199.25;;;-7.83;40.89
37792;BME280;29527;55.766;37.570;2023-02-22T11:39:38;99194.03;;;-7.81;40.89
37792;BME280;29527;55.766;37.570;2023-02-22T11:42:21;99207.34;;;-8.03;41.24
37792;BME280;29527;55.766;37.570;2023-02-22T11:47:52;99215.38;;;-8.18;42.28
37792;BME280;29527;55.766;37.570;2023-02-22T11:50:25;99221.25;;;-8.07;42.46
37792;BME280;29527;55.766;37.570;2023-02-22T11:55:38;99218.84;;;-7.61;42.00
37792;BME280;29527;55.766;37.570;2023-02-22T12:01:12;99190.59;;;-7.30;41.23
37792;BME280;29527;55.766;37.570;2023-02-22T12:04:10;99233.97;;;-6.85;40.40
37792;BME280;29527;55.766;37.570;2023-02-22T12:12:20;99241.16;;;-6.96;40.85
37792;BME280;29527;55.766;37.570;2023-02-22T12:20:20;99242.78;;;-7.42;41.22
37792;BME280;29527;55.766;37.570;2023-02-22T12:25:24;99216.69;;;-7.91;41.57
37792;BME280;29527;55.766;37.570;2023-02-22T12:27:54;99252.03;;;-7.78;41.92
37792;BME280;29527;55.766;37.570;2023-02-22T12:30:35;99263.75;;;-8.11;42.73
37792;BME280;29527;55.766;37.570;2023-02-22T12:33:10;99258.75;;;-8.27;43.33
37792;BME280;29527;55.766;37.570;2023-02-22T12:35:47;99269.19;;;-8.28;43.52
37792;BME280;29527;55.766;37.570;2023-02-22T12:38:21;99282.03;;;-8.19;43.07
37792;BME280;29527;55.766;37.570;2023-02-22T12:43:42;99281.19;;;-8.23;43.15
37792;BME280;29527;55.766;37.570;2023-02-22T12:46:36;99285.66;;;-8.31;43.42
37792;BME280;29527;55.766;37.570;2023-02-22T12:49:22;99292.53;;;-8.28;44.17
37792;BME280;29527;55.766;37.570;2023-02-22T12:52:54;99296.69;;;-8.13;43.83
37792;BME280;29527;55.766;37.570;2023-02-22T12:58:20;99263.50;;;-7.93;43.31
37792;BME280;29527;55.766;37.570;2023-02-22T13:01:02;99303.97;;;-7.76;43.28
37792;BME280;29527;55.766;37.570;2023-02-22T13:03:36;99286.75;;;-7.83;43.84
37792;BME280;29527;55.766;37.570;2023-02-22T13:20:13;99318.63;;;-7.72;43.88
37792;BME280;29527;55.766;37.570;2023-02-22T13:25:22;99317.00;;;-7.79;44.04
37792;BME280;29527;55.766;37.570;2023-02-22T13:27:57;99314.50;;;-7.85;44.15
37792;BME280;29527;55.766;37.570;2023-02-22T13:36:19;99294.97;;;-8.16;44.19
37792;BME280;29527;55.766;37.570;2023-02-22T13:39:54;99332.13;;;-8.11;44.28
37792;BME280;29527;55.766;37.570;2023-02-22T13:41:58;99334.09;;;-8.28;44.46
37792;BME280;29527;55.766;37.570;2023-02-22T13:50:05;99343.25;;;-8.74;45.75
37792;BME280;29527;55.766;37.570;2023-02-22T13:52:40;99331.28;;;-8.89;45.68
37792;BME280;29527;55.766;37.570;2023-02-22T13:55:13;99348.59;;;-8.93;46.28
37792;BME280;29527;55.766;37.570;2023-02-22T13:57:43;99338.34;;;-9.04;46.21
37792;BME280;29527;55.766;37.570;2023-02-22T14:03:26;99345.25;;;-9.06;46.53
37792;BME280;29527;55.766;37.570;2023-02-22T14:05:54;99346.16;;;-9.10;46.91
37792;BME280;29527;55.766;37.570;2023-02-22T14:10:57;99343.69;;;-9.23;47.27
37792;BME280;29527;55.766;37.570;2023-02-22T14:13:24;99352.38;;;-9.31;47.41
37792;BME280;29527;55.766;37.570;2023-02-22T14:18:26;99354.22;;;-9.49;47.38
37792;BME280;29527;55.766;37.570;2023-02-22T14:21:13;99356.78;;;-9.40;47.60
37792;BME280;29527;55.766;37.570;2023-02-22T14:23:44;99356.81;;;-9.49;47.59
37792;BME280;29527;55.766;37.570;2023-02-22T14:26:32;99355.16;;;-9.56;48.15
37792;BME280;29527;55.766;37.570;2023-02-22T14:34:20;99368.25;;;-9.81;48.13
37792;BME280;29527;55.766;37.570;2023-02-22T14:36:55;99360.50;;;-9.84;48.16
37792;BME280;29527;55.766;37.570;2023-02-22T14:39:28;99366.53;;;-9.91;48.63
37792;BME280;29527;55.766;37.570;2023-02-22T14:42:05;99358.88;;;-10.10;48.82
37792;BME280;29527;55.766;37.570;2023-02-22T14:44:37;99376.13;;;-10.07;49.14
37792;BME280;29527;55.766;37.570;2023-02-22T14:47:06;99386.50;;;-10.12;49.09
37792;BME280;29527;55.766;37.570;2023-02-22T14:49:37;99379.59;;;-10.19;49.62
37792;BME280;29527;55.766;37.570;2023-02-22T14:52:12;99386.53;;;-10.25;49.49
37792;BME280;29527;55.766;37.570;2023-02-22T14:57:48;99383.97;;;-10.35;49.96
37792;BME280;29527;55.766;37.570;2023-02-22T15:00:19;99384.00;;;-10.40;49.99
37792;BME280;29527;55.766;37.570;2023-02-22T15:02:49;99393.50;;;-10.42;50.19
37792;BME280;29527;55.766;37.570;2023-02-22T15:05:18;99359.94;;;-10.69;50.18
37792;BME280;29527;55.766;37.570;2023-02-22T15:07:56;99395.25;;;-10.52;50.59